Time;durP1;ratioP1;P1;durP2;ratioP2;P2;SDS_P1;SDS_P2;PMS_P1;PMS_P2;Temp;Humidity;BMP_temperature;BMP_pressure;BME280_temperature;BME280_humidity;BME280_pressure;Samples;Min_cycle;Max_cycle;Signal;HPM_P1;HPM_P2
2022/08/29 00:00:01;;;;;;;6.20;3.30;;;13.70;99.90;;;;;;5093934;28;20308;-68
2022/08/29 00:02:28;;;;;;;10.13;3.70;;;13.40;99.90;;;;;;5108598;28;20189;-68
2022/08/29 00:04:55;;;;;;;8.60;3.90;;;13.40;99.90;;;;;;5102000;28;20207;-68
2022/08/29 00:07:23;;;;;;;8.90;3.80;;;13.40;99.90;;;;;;5095972;28;20197;-68
2022/08/29 00:09:50;;;;;;;8.23;4.00;;;13.50;99.90;;;;;;5119455;27;20201;-68
2022/08/29 00:12:17;;;;;;;10.63;3.53;;;13.30;99.90;;;;;;5093414;28;20193;-68
2022/08/29 00:14:44;;;;;;;9.37;3.50;;;13.20;99.90;;;;;;5102913;28;20193;-68
2022/08/29 00:17:10;;;;;;;10.10;4.10;;;13.40;99.90;;;;;;5112270;28;20211;-68
2022/08/29 00:19:38;;;;;;;8.77;4.13;;;13.50;99.90;;;;;;5112622;28;20246;-68
2022/08/29 00:22:05;;;;;;;6.00;3.20;;;13.20;99.90;;;;;;5112050;28;20261;-68
2022/08/29 00:24:33;;;;;;;11.23;3.93;;;13.30;99.90;;;;;;5094929;28;20566;-68
2022/08/29 00:27:00;;;;;;;8.93;3.40;;;13.40;99.90;;;;;;5112776;28;20224;-68
2022/08/29 00:29:27;;;;;;;10.87;4.00;;;13.50;99.90;;;;;;5100574;28;20242;-69
2022/08/29 00:31:54;;;;;;;6.50;3.50;;;13.30;99.90;;;;;;5112641;28;20196;-68
2022/08/29 00:34:21;;;;;;;10.03;4.03;;;13.20;99.90;;;;;;5096604;28;20220;-68
2022/08/29 00:36:48;;;;;;;10.97;3.93;;;13.20;99.90;;;;;;5104329;28;20663;-68
2022/08/29 00:39:14;;;;;;;8.40;3.93;;;13.20;99.90;;;;;;5110315;28;20221;-68
2022/08/29 00:41:42;;;;;;;9.50;3.53;;;13.20;99.90;;;;;;5111399;28;20193;-68
2022/08/29 00:44:09;;;;;;;10.27;4.17;;;13.20;99.90;;;;;;5098697;28;20205;-68
2022/08/29 00:46:50;;;;;;;10.03;3.70;;;13.30;99.90;;;;;;5100330;27;20216;-68
2022/08/29 00:49:31;;;;;;;9.13;3.70;;;13.40;99.90;;;;;;5116973;27;20284;-68
2022/08/29 00:52:06;;;;;;;6.63;3.60;;;13.20;99.90;;;;;;5104836;28;20208;-68
2022/08/29 00:54:33;;;;;;;9.13;4.50;;;13.30;99.90;;;;;;5094603;28;20200;-68
2022/08/29 00:57:02;;;;;;;7.33;3.67;;;13.20;99.90;;;;;;5104440;28;20223;-68
2022/08/29 00:59:32;;;;;;;10.10;4.03;;;13.10;99.90;;;;;;5113143;28;20687;-68
2022/08/29 01:01:59;;;;;;;11.57;4.80;;;13.20;99.90;;;;;;5110954;28;20201;-68
2022/08/29 01:04:26;;;;;;;10.10;3.90;;;13.00;99.90;;;;;;5109225;28;20197;-68
2022/08/29 01:06:54;;;;;;;6.90;3.63;;;13.10;99.90;;;;;;5115749;27;20204;-68
2022/08/29 01:09:22;;;;;;;8.03;4.23;;;13.10;99.90;;;;;;5127454;27;20196;-68
2022/08/29 01:14:35;;;;;;;6.27;3.40;;;13.10;99.90;;;;;;5097379;28;20204;-68
2022/08/29 01:17:03;;;;;;;6.20;4.33;;;13.10;99.90;;;;;;5112526;28;20193;-68
2022/08/29 01:19:39;;;;;;;11.27;3.70;;;13.10;99.90;;;;;;5101664;28;20225;-68
2022/08/29 01:22:28;;;;;;;5.67;3.10;;;13.10;99.90;;;;;;5091762;28;20232;-68
2022/08/29 01:24:58;;;;;;;7.83;3.87;;;13.00;99.90;;;;;;5102534;28;20618;-68
2022/08/29 01:27:29;;;;;;;8.90;3.83;;;13.00;99.90;;;;;;5108233;28;20568;-68
2022/08/29 01:29:56;;;;;;;8.80;4.03;;;13.10;99.90;;;;;;5097928;28;20204;-68
2022/08/29 01:32:24;;;;;;;9.87;3.97;;;13.00;99.90;;;;;;5091725;28;20208;-68
2022/08/29 01:34:51;;;;;;;10.63;3.53;;;12.90;99.90;;;;;;5091511;28;20213;-68
2022/08/29 01:37:19;;;;;;;8.10;4.27;;;12.90;99.90;;;;;;5105007;28;20220;-68
2022/08/29 01:39:46;;;;;;;11.07;4.40;;;12.90;99.90;;;;;;5111568;28;20213;-68
2022/08/29 01:42:20;;;;;;;6.90;3.77;;;13.00;99.90;;;;;;5094401;28;20198;-69
2022/08/29 01:44:49;;;;;;;7.17;3.43;;;13.00;99.90;;;;;;5103404;28;20272;-69
2022/08/29 01:47:16;;;;;;;5.80;3.60;;;13.00;99.90;;;;;;5102626;28;20197;-69
2022/08/29 01:49:44;;;;;;;9.97;3.67;;;12.80;99.90;;;;;;5112016;28;20658;-69
2022/08/29 01:52:12;;;;;;;12.17;4.57;;;12.80;99.90;;;;;;5101405;28;20194;-69
2022/08/29 01:54:40;;;;;;;8.13;3.70;;;12.90;99.90;;;;;;5100699;28;20197;-69
2022/08/29 01:57:07;;;;;;;7.87;3.87;;;12.80;99.90;;;;;;5111552;28;20208;-69
2022/08/29 01:59:36;;;;;;;15.43;3.67;;;12.80;99.90;;;;;;5111964;28;20220;-69
2022/08/29 02:02:07;;;;;;;8.07;3.43;;;12.60;99.90;;;;;;5099889;28;20189;-69
2022/08/29 02:04:34;;;;;;;12.77;3.97;;;12.70;99.90;;;;;;5093156;28;20193;-69
2022/08/29 02:07:02;;;;;;;10.20;3.93;;;12.70;99.90;;;;;;5092106;28;20202;-69
2022/08/29 02:09:29;;;;;;;10.83;4.30;;;12.70;99.90;;;;;;5105640;28;20573;-69
2022/08/29 02:11:58;;;;;;;8.87;3.80;;;12.50;99.90;;;;;;5094898;28;20206;-69
2022/08/29 02:14:25;;;;;;;9.13;3.47;;;12.60;99.90;;;;;;5105877;28;20416;-69
2022/08/29 02:16:54;;;;;;;9.00;3.47;;;12.70;99.90;;;;;;5092202;28;20671;-69
2022/08/29 02:19:20;;;;;;;9.43;3.90;;;12.60;99.90;;;;;;5101010;28;20200;-69
2022/08/29 02:21:47;;;;;;;8.43;3.50;;;12.60;99.90;;;;;;5108525;28;20197;-69
2022/08/29 02:24:16;;;;;;;9.47;3.83;;;12.70;99.90;;;;;;5111278;28;20212;-69
2022/08/29 02:26:43;;;;;;;8.10;4.27;;;12.60;99.90;;;;;;5109411;28;20760;-69
2022/08/29 02:29:11;;;;;;;8.00;3.97;;;12.60;99.90;;;;;;5098364;28;20675;-69
2022/08/29 02:31:38;;;;;;;8.73;3.50;;;12.40;99.90;;;;;;5102736;28;20197;-69
2022/08/29 02:34:07;;;;;;;7.10;4.00;;;12.50;99.90;;;;;;5106050;28;20193;-69
2022/08/29 02:36:34;;;;;;;8.50;3.80;;;12.50;99.90;;;;;;5104411;28;20216;-69
2022/08/29 02:39:01;;;;;;;8.93;4.60;;;12.50;99.90;;;;;;5124058;28;20208;-69
2022/08/29 02:41:28;;;;;;;9.73;5.13;;;12.50;99.90;;;;;;5111473;28;20227;-69
2022/08/29 02:43:55;;;;;;;8.33;4.77;;;12.60;99.90;;;;;;5110067;28;20193;-69
2022/08/29 02:46:22;;;;;;;11.20;4.40;;;12.70;99.90;;;;;;5106710;28;20228;-69
2022/08/29 02:48:48;;;;;;;9.20;3.87;;;12.60;99.90;;;;;;5095858;28;20200;-69
2022/08/29 02:51:20;;;;;;;7.10;3.80;;;12.70;99.90;;;;;;5103193;28;20194;-69
2022/08/29 02:53:47;;;;;;;9.47;3.83;;;12.50;99.90;;;;;;5114156;28;20200;-68
2022/08/29 02:56:14;;;;;;;6.40;3.40;;;12.60;99.90;;;;;;5112600;28;20639;-69
2022/08/29 02:58:41;;;;;;;11.30;4.27;;;12.60;99.90;;;;;;5106707;27;20202;-68
2022/08/29 03:01:08;;;;;;;9.47;4.17;;;12.60;99.90;;;;;;5119564;27;20223;-69
2022/08/29 03:03:35;;;;;;;8.20;3.53;;;12.60;99.90;;;;;;5098902;28;20258;-69
2022/08/29 03:06:03;;;;;;;7.00;3.40;;;12.50;99.90;;;;;;5111046;28;20571;-69
2022/08/29 03:08:31;;;;;;;7.33;3.40;;;12.60;99.90;;;;;;5104152;28;20600;-69
2022/08/29 03:10:58;;;;;;;8.43;4.00;;;12.60;99.90;;;;;;5113947;28;20200;-69
2022/08/29 03:13:25;;;;;;;10.47;3.77;;;12.60;99.90;;;;;;5099151;28;20586;-69
2022/08/29 03:15:52;;;;;;;9.13;4.33;;;12.60;99.90;;;;;;5110417;27;20200;-69
2022/08/29 03:18:19;;;;;;;7.80;3.70;;;12.60;99.90;;;;;;5104794;27;20224;-70
2022/08/29 03:20:46;;;;;;;6.60;3.63;;;12.60;99.90;;;;;;5112375;27;20201;-69
2022/08/29 03:23:13;;;;;;;6.87;3.77;;;12.70;99.90;;;;;;5101409;27;20235;-69
2022/08/29 03:25:42;;;;;;;8.30;4.37;;;12.60;99.90;;;;;;5105132;28;20205;-69
2022/08/29 03:28:09;;;;;;;11.03;5.07;;;12.50;99.90;;;;;;5107992;28;20240;-69
2022/08/29 03:30:35;;;;;;;12.27;4.53;;;12.70;99.90;;;;;;5106921;27;20197;-69
2022/08/29 03:33:03;;;;;;;11.53;4.67;;;12.70;99.90;;;;;;5108300;28;20216;-69
2022/08/29 03:35:30;;;;;;;10.27;3.90;;;12.70;99.90;;;;;;5098390;28;20239;-69
2022/08/29 03:37:57;;;;;;;8.97;3.77;;;12.70;99.90;;;;;;5095444;28;20668;-70
2022/08/29 03:40:25;;;;;;;11.87;4.10;;;12.80;99.90;;;;;;5094790;28;20213;-69
2022/08/29 03:42:54;;;;;;;7.97;4.13;;;12.90;99.90;;;;;;5101273;28;20312;-69
2022/08/29 03:45:24;;;;;;;9.47;4.00;;;12.90;99.90;;;;;;5100236;28;20197;-69
2022/08/29 03:47:51;;;;;;;9.57;4.00;;;12.90;99.90;;;;;;5108291;28;20201;-69
2022/08/29 03:50:19;;;;;;;8.43;4.10;;;12.90;99.90;;;;;;5102640;28;20240;-69
2022/08/29 03:52:46;;;;;;;9.97;3.70;;;12.90;99.90;;;;;;5105642;28;20193;-69
2022/08/29 03:55:14;;;;;;;8.93;3.97;;;13.00;99.90;;;;;;5100204;28;20655;-69
2022/08/29 03:57:41;;;;;;;7.67;3.77;;;13.00;99.90;;;;;;5095087;28;20219;-69
2022/08/29 04:00:15;;;;;;;8.90;3.90;;;13.00;99.90;;;;;;5106207;28;20224;-69
2022/08/29 04:02:43;;;;;;;8.93;3.87;;;13.10;99.90;;;;;;5111449;28;20538;-69
2022/08/29 04:05:11;;;;;;;6.07;3.70;;;13.20;99.90;;;;;;5098477;28;20678;-69
2022/08/29 04:07:47;;;;;;;10.10;3.83;;;13.10;99.90;;;;;;5122432;27;20583;-69
2022/08/29 04:10:18;;;;;;;11.77;4.63;;;13.10;99.90;;;;;;5113236;27;20211;-69
2022/08/29 04:12:45;;;;;;;7.50;4.00;;;13.20;99.90;;;;;;5112097;28;20197;-69
2022/08/29 04:15:13;;;;;;;10.57;3.90;;;13.10;99.90;;;;;;5113582;28;20193;-69
2022/08/29 04:17:41;;;;;;;8.07;3.67;;;13.10;99.90;;;;;;5098406;28;20669;-69
2022/08/29 04:20:09;;;;;;;7.70;3.70;;;13.20;99.90;;;;;;5098709;28;20216;-69
2022/08/29 04:22:38;;;;;;;7.87;3.87;;;13.20;99.90;;;;;;5094081;28;20663;-69
2022/08/29 04:25:09;;;;;;;6.60;3.60;;;13.30;99.90;;;;;;5102069;28;20201;-69
2022/08/29 04:27:36;;;;;;;8.00;3.50;;;13.30;99.90;;;;;;5101961;28;20204;-69
2022/08/29 04:30:06;;;;;;;9.37;4.10;;;13.40;99.90;;;;;;5112781;28;20209;-69
2022/08/29 04:32:34;;;;;;;6.77;3.57;;;13.30;99.90;;;;;;5099913;28;20864;-69
2022/08/29 04:35:02;;;;;;;10.07;3.83;;;13.40;99.90;;;;;;5107985;28;20574;-70
2022/08/29 04:37:29;;;;;;;8.60;4.00;;;13.40;99.90;;;;;;5112378;28;20713;-70
2022/08/29 04:39:56;;;;;;;8.03;3.83;;;13.30;99.90;;;;;;5101277;28;20647;-70
2022/08/29 04:42:23;;;;;;;8.13;4.10;;;13.50;99.90;;;;;;5105265;28;20201;-70
2022/08/29 04:44:50;;;;;;;6.97;3.50;;;13.50;99.90;;;;;;5114895;27;20291;-69
2022/08/29 04:47:20;;;;;;;8.43;3.93;;;13.50;99.90;;;;;;5113099;27;20562;-70
2022/08/29 04:49:53;;;;;;;12.60;3.93;;;13.40;99.90;;;;;;5110465;28;20200;-70
2022/08/29 04:52:20;;;;;;;8.30;4.00;;;13.50;99.90;;;;;;5101322;28;20216;-67
2022/08/29 04:54:47;;;;;;;8.13;3.83;;;13.50;99.90;;;;;;5094949;28;20205;-70
2022/08/29 04:57:14;;;;;;;9.10;3.50;;;13.60;99.90;;;;;;5094179;28;20674;-67
2022/08/29 04:59:41;;;;;;;9.80;3.97;;;13.60;99.90;;;;;;5092924;28;20656;-67
2022/08/29 05:02:07;;;;;;;9.33;4.10;;;13.60;99.90;;;;;;5108363;28;20227;-69
2022/08/29 05:04:34;;;;;;;9.97;3.77;;;13.50;99.90;;;;;;5109829;28;20528;-67
2022/08/29 05:07:02;;;;;;;11.13;4.43;;;13.60;99.90;;;;;;5098664;28;20203;-68
2022/08/29 05:09:29;;;;;;;7.77;3.33;;;13.70;99.90;;;;;;5112355;28;20230;-67
2022/08/29 05:11:56;;;;;;;9.80;3.83;;;13.70;99.90;;;;;;5093270;28;20194;-68
2022/08/29 05:14:23;;;;;;;8.73;3.60;;;13.70;99.90;;;;;;5092572;28;20293;-69
2022/08/29 05:16:50;;;;;;;9.60;3.80;;;13.80;99.90;;;;;;5096149;28;20189;-67
2022/08/29 05:19:16;;;;;;;9.57;3.67;;;13.80;99.90;;;;;;5103730;28;20617;-68
2022/08/29 05:21:43;;;;;;;9.77;4.17;;;13.70;99.90;;;;;;5094313;28;20702;-69
2022/08/29 05:24:13;;;;;;;13.30;4.23;;;13.80;99.90;;;;;;5111955;28;20203;-69
2022/08/29 05:26:42;;;;;;;9.60;3.83;;;14.00;99.90;;;;;;5111485;28;20229;-69
2022/08/29 05:29:12;;;;;;;6.83;3.30;;;14.00;99.90;;;;;;5107602;27;20224;-69
2022/08/29 05:31:40;;;;;;;7.93;3.70;;;13.90;99.90;;;;;;5091353;28;20620;-70
2022/08/29 05:34:07;;;;;;;7.23;3.40;;;13.90;99.90;;;;;;5104211;28;20201;-69
2022/08/29 05:36:34;;;;;;;10.63;4.40;;;13.90;99.90;;;;;;5091935;28;20249;-69
2022/08/29 05:39:01;;;;;;;7.77;3.83;;;14.00;99.90;;;;;;5092668;28;20652;-70
2022/08/29 05:41:30;;;;;;;10.93;3.70;;;14.10;99.90;;;;;;5089013;28;20221;-70
2022/08/29 05:43:57;;;;;;;9.60;3.83;;;14.20;99.90;;;;;;5108500;28;20201;-71
2022/08/29 05:46:25;;;;;;;11.93;4.10;;;14.10;99.90;;;;;;5108318;28;20557;-70
2022/08/29 05:48:51;;;;;;;12.57;4.10;;;14.20;99.90;;;;;;5109982;28;20651;-71
2022/08/29 05:51:21;;;;;;;9.47;3.40;;;14.30;99.90;;;;;;5096785;28;20216;-71
2022/08/29 05:53:48;;;;;;;7.50;3.30;;;14.50;99.90;;;;;;5108378;28;20211;-71
2022/08/29 05:56:22;;;;;;;10.27;4.57;;;14.60;99.90;;;;;;5107002;28;20201;-72
2022/08/29 05:58:50;;;;;;;10.47;3.60;;;14.70;99.90;;;;;;5105835;28;20200;-72
2022/08/29 06:01:22;;;;;;;7.17;3.67;;;14.70;99.90;;;;;;5121775;28;20227;-69
2022/08/29 06:03:49;;;;;;;13.53;4.00;;;14.70;99.90;;;;;;5131608;28;20200;-69
2022/08/29 06:06:19;;;;;;;9.87;4.00;;;14.80;99.90;;;;;;5114965;28;20207;-69
2022/08/29 06:08:46;;;;;;;9.93;3.87;;;14.80;99.90;;;;;;5111840;28;20193;-69
2022/08/29 06:11:16;;;;;;;7.87;3.83;;;14.70;99.90;;;;;;5110468;28;20193;-70
2022/08/29 06:13:43;;;;;;;8.37;3.77;;;14.60;99.90;;;;;;5097121;28;20556;-70
2022/08/29 06:16:16;;;;;;;6.90;3.60;;;14.60;99.90;;;;;;5100841;28;20578;-70
2022/08/29 06:18:44;;;;;;;8.37;3.83;;;14.80;99.90;;;;;;5111986;28;20197;-70
2022/08/29 06:21:11;;;;;;;10.80;3.63;;;14.60;99.90;;;;;;5107673;28;20216;-70
2022/08/29 06:23:39;;;;;;;8.20;3.97;;;14.60;99.90;;;;;;5110984;28;20213;-69
2022/08/29 06:26:07;;;;;;;9.23;3.73;;;14.60;99.90;;;;;;5102701;28;20193;-70
2022/08/29 06:28:35;;;;;;;8.80;3.93;;;14.70;99.90;;;;;;5115806;28;20208;-70
2022/08/29 06:31:07;;;;;;;11.13;3.70;;;14.60;99.90;;;;;;5115798;28;20291;-69
2022/08/29 06:33:35;;;;;;;12.40;4.17;;;14.70;99.90;;;;;;5113130;28;20205;-69
2022/08/29 06:36:03;;;;;;;10.47;4.10;;;14.60;99.90;;;;;;5115674;28;20468;-69
2022/08/29 06:38:30;;;;;;;9.27;3.77;;;14.60;99.90;;;;;;5109885;28;20201;-70
2022/08/29 06:40:57;;;;;;;7.27;3.93;;;14.70;99.90;;;;;;5109867;27;20238;-70
2022/08/29 06:43:23;;;;;;;10.67;4.30;;;14.50;99.90;;;;;;5115274;27;20204;-70
2022/08/29 06:45:50;;;;;;;5.80;3.47;;;14.70;99.90;;;;;;5115849;28;20197;-70
2022/08/29 06:48:17;;;;;;;14.43;3.77;;;14.80;99.90;;;;;;5114456;28;20198;-69
2022/08/29 06:50:45;;;;;;;8.30;3.50;;;14.80;99.90;;;;;;5105714;28;20215;-69
2022/08/29 06:53:12;;;;;;;7.70;3.90;;;15.00;99.90;;;;;;5095497;28;20216;-69
2022/08/29 06:55:39;;;;;;;8.50;4.13;;;14.90;99.90;;;;;;5107379;28;20208;-69
2022/08/29 06:58:06;;;;;;;9.67;3.80;;;15.10;99.90;;;;;;5101136;28;20193;-69
2022/08/29 07:00:33;;;;;;;9.33;4.13;;;15.30;99.90;;;;;;5104260;28;20205;-70
2022/08/29 07:03:00;;;;;;;10.37;3.93;;;15.40;99.90;;;;;;5113978;28;20686;-70
2022/08/29 07:05:28;;;;;;;8.83;4.27;;;15.50;99.90;;;;;;5107699;28;20201;-70
2022/08/29 07:07:56;;;;;;;8.27;4.30;;;15.80;99.90;;;;;;5095305;28;20205;-70
2022/08/29 07:10:23;;;;;;;10.40;3.83;;;15.80;99.90;;;;;;5111248;28;20196;-70
2022/08/29 07:12:51;;;;;;;11.70;4.13;;;15.70;99.90;;;;;;5115465;28;20201;-69
2022/08/29 07:15:19;;;;;;;8.13;3.93;;;15.40;99.90;;;;;;5115755;27;20202;-69
2022/08/29 07:17:46;;;;;;;8.70;4.07;;;15.60;99.90;;;;;;5100744;27;20247;-69
2022/08/29 07:20:13;;;;;;;9.73;4.20;;;15.60;99.90;;;;;;5107601;27;20221;-69
2022/08/29 07:22:40;;;;;;;11.57;4.30;;;15.60;99.90;;;;;;5107076;27;20255;-69
2022/08/29 07:25:10;;;;;;;9.57;3.63;;;15.80;99.90;;;;;;5110427;27;20647;-69
2022/08/29 07:27:37;;;;;;;11.10;4.47;;;15.90;99.90;;;;;;5112159;28;20228;-70
2022/08/29 07:30:05;;;;;;;11.38;4.18;;;16.10;99.90;;;;;;5106041;28;20563;-70
2022/08/29 07:32:32;;;;;;;10.03;4.20;;;16.10;99.90;;;;;;5113867;28;20229;-70
2022/08/29 07:34:59;;;;;;;11.82;4.00;;;16.20;99.90;;;;;;5111361;28;20205;-70
2022/08/29 07:37:25;;;;;;;10.20;4.85;;;16.20;99.90;;;;;;5093056;28;20302;-70
2022/08/29 07:39:52;;;;;;;9.90;3.57;;;16.20;99.90;;;;;;5093541;28;20212;-70
2022/08/29 07:42:20;;;;;;;13.13;4.00;;;16.40;99.90;;;;;;5094302;28;20308;-70
2022/08/29 07:44:47;;;;;;;10.17;4.37;;;16.60;99.90;;;;;;5094035;28;20572;-70
2022/08/29 07:47:14;;;;;;;11.68;4.20;;;16.60;99.90;;;;;;5093111;28;20205;-70
2022/08/29 07:49:41;;;;;;;9.65;4.80;;;16.90;99.90;;;;;;5092991;28;20204;-70
2022/08/29 07:52:08;;;;;;;9.48;4.68;;;16.90;99.90;;;;;;5093777;28;20570;-70
2022/08/29 07:54:35;;;;;;;9.65;4.10;;;16.80;99.90;;;;;;5093911;28;20201;-70
2022/08/29 07:57:01;;;;;;;8.57;4.10;;;17.10;99.90;;;;;;5093362;28;20205;-70
2022/08/29 07:59:31;;;;;;;11.40;4.18;;;17.20;99.90;;;;;;5093907;28;20859;-70
2022/08/29 08:01:58;;;;;;;10.43;4.68;;;17.20;99.90;;;;;;5093228;28;20221;-70
2022/08/29 08:04:24;;;;;;;12.95;4.28;;;17.50;99.90;;;;;;5093846;28;20209;-70
2022/08/29 08:06:51;;;;;;;9.30;4.25;;;17.60;99.90;;;;;;5093986;28;20562;-70
2022/08/29 08:09:18;;;;;;;11.95;4.95;;;17.50;99.90;;;;;;5093251;28;20197;-70
2022/08/29 08:11:45;;;;;;;11.70;4.88;;;17.80;99.90;;;;;;5093359;28;20197;-70
2022/08/29 08:14:12;;;;;;;11.45;4.88;;;17.90;99.90;;;;;;5093239;28;20660;-70
2022/08/29 08:16:41;;;;;;;8.55;4.20;;;18.00;99.90;;;;;;5123393;27;20554;-70
2022/08/29 08:19:08;;;;;;;8.90;4.20;;;18.10;99.90;;;;;;5134898;27;20223;-70
2022/08/29 08:21:35;;;;;;;11.80;4.38;;;18.20;99.90;;;;;;5109995;27;20217;-70
2022/08/29 08:24:02;;;;;;;10.68;4.25;;;18.20;99.90;;;;;;5113817;28;20200;-70
2022/08/29 08:26:29;;;;;;;11.35;4.25;;;18.00;99.90;;;;;;5102666;28;20586;-70
2022/08/29 08:28:57;;;;;;;12.30;4.50;;;18.00;99.90;;;;;;5093356;28;20297;-70
2022/08/29 08:31:24;;;;;;;15.90;5.05;;;18.10;99.90;;;;;;5092494;28;20262;-70
2022/08/29 08:33:53;;;;;;;11.27;4.68;;;18.10;99.90;;;;;;5092029;28;20205;-70
2022/08/29 08:36:23;;;;;;;14.18;5.50;;;17.90;99.90;;;;;;5093401;28;20297;-70
2022/08/29 08:38:53;;;;;;;10.55;4.90;;;17.80;99.90;;;;;;5093391;28;20205;-70
2022/08/29 08:41:31;;;;;;;14.77;5.63;;;17.50;99.90;;;;;;5091983;28;20208;-70
2022/08/29 08:44:03;;;;;;;15.93;5.90;;;17.60;99.90;;;;;;5092838;28;20205;-70
2022/08/29 08:46:36;;;;;;;11.65;5.70;;;17.60;99.90;;;;;;5092681;28;20296;-70
2022/08/29 08:49:09;;;;;;;13.50;6.03;;;17.40;99.90;;;;;;5093229;28;20198;-70
2022/08/29 08:51:43;;;;;;;14.63;6.13;;;17.20;99.90;;;;;;5111123;27;20203;-70
2022/08/29 08:54:17;;;;;;;14.32;6.32;;;17.00;99.90;;;;;;5120385;27;20197;-70
2022/08/29 08:56:47;;;;;;;11.35;5.90;;;17.10;99.90;;;;;;5112655;28;20192;-70
2022/08/29 08:59:18;;;;;;;15.25;6.43;;;17.20;99.90;;;;;;5099060;28;20213;-70
2022/08/29 09:01:56;;;;;;;11.68;5.32;;;17.40;99.90;;;;;;5091246;28;20671;-70
2022/08/29 09:04:42;;;;;;;12.43;6.00;;;17.40;99.90;;;;;;5092604;28;20205;-70
2022/08/29 09:07:26;;;;;;;13.82;5.50;;;17.40;99.90;;;;;;5092889;28;20208;-70
2022/08/29 09:10:08;;;;;;;12.68;5.80;;;17.60;99.90;;;;;;5091109;28;20212;-70
2022/08/29 09:12:52;;;;;;;18.17;6.93;;;17.50;99.90;;;;;;5082062;28;20201;-69
2022/08/29 09:15:23;;;;;;;15.73;6.70;;;17.60;99.90;;;;;;5112732;28;20196;-69
2022/08/29 09:17:55;;;;;;;13.38;6.32;;;17.70;99.90;;;;;;5100656;28;20408;-69
2022/08/29 09:20:27;;;;;;;12.60;6.22;;;17.70;99.90;;;;;;5091333;28;20296;-69
2022/08/29 09:22:59;;;;;;;13.65;6.10;;;17.50;99.90;;;;;;5091248;28;20228;-69
2022/08/29 09:25:28;;;;;;;12.45;5.85;;;17.70;99.90;;;;;;5091304;28;20251;-69
2022/08/29 09:27:57;;;;;;;15.48;6.18;;;17.80;99.90;;;;;;5092398;28;20259;-69
2022/08/29 09:30:26;;;;;;;10.20;5.78;;;17.90;99.90;;;;;;5092181;28;20214;-70
2022/08/29 09:32:57;;;;;;;10.10;5.97;;;17.80;99.90;;;;;;5092527;28;20198;-69
2022/08/29 09:35:30;;;;;;;14.23;6.80;;;17.90;99.90;;;;;;5091857;28;20209;-69
2022/08/29 09:37:59;;;;;;;13.65;6.65;;;18.00;99.90;;;;;;5092601;28;20567;-69
2022/08/29 09:40:44;;;;;;;20.17;7.18;;;18.10;99.90;;;;;;5091982;28;20201;-69
2022/08/29 09:43:18;;;;;;;11.65;5.78;;;18.20;99.90;;;;;;5092045;28;20228;-69
2022/08/29 09:46:14;;;;;;;14.70;6.20;;;18.20;99.90;;;;;;5092232;28;20206;-69
2022/08/29 09:48:44;;;;;;;13.68;6.82;;;18.20;99.90;;;;;;5094186;28;20563;-69
2022/08/29 09:51:19;;;;;;;17.00;7.53;;;18.40;99.90;;;;;;5112262;28;20208;-69
2022/08/29 09:53:46;;;;;;;11.27;6.50;;;18.40;99.90;;;;;;5115195;28;20561;-69
2022/08/29 09:56:18;;;;;;;12.95;6.78;;;18.40;99.90;;;;;;5096313;28;20208;-69
2022/08/29 09:58:56;;;;;;;12.50;6.10;;;18.60;99.90;;;;;;5095718;28;20210;-69
2022/08/29 10:01:23;;;;;;;11.85;5.85;;;18.60;99.90;;;;;;5094826;28;20205;-69
2022/08/29 10:03:55;;;;;;;15.20;6.45;;;18.50;99.90;;;;;;5096095;28;20228;-69
2022/08/29 10:06:26;;;;;;;13.57;6.57;;;18.60;99.90;;;;;;5096287;28;20216;-69
2022/08/29 10:09:00;;;;;;;12.05;6.40;;;18.70;99.90;;;;;;5094978;28;20432;-69
2022/08/29 10:11:32;;;;;;;13.85;6.72;;;18.70;99.90;;;;;;5095833;28;20197;-69
2022/08/29 10:14:03;;;;;;;14.90;7.03;;;18.60;99.90;;;;;;5095739;28;20213;-69
2022/08/29 10:16:38;;;;;;;14.23;7.50;;;18.60;99.90;;;;;;5096019;28;20209;-69
2022/08/29 10:19:11;;;;;;;14.23;7.03;;;18.70;99.90;;;;;;5095134;28;20207;-69
2022/08/29 10:21:47;;;;;;;13.95;7.47;;;18.80;99.90;;;;;;5095268;28;20569;-69
2022/08/29 10:24:53;;;;;;;17.23;7.47;;;18.90;99.90;;;;;;5095049;28;20541;-69
2022/08/29 10:27:29;;;;;;;13.25;6.82;;;19.00;99.90;;;;;;5095453;28;20577;-69
2022/08/29 10:30:09;;;;;;;13.63;6.90;;;19.10;99.90;;;;;;5114938;28;20227;-69
2022/08/29 10:33:03;;;;;;;11.30;6.53;;;19.20;99.90;;;;;;5108166;28;20217;-69
2022/08/29 10:35:36;;;;;;;12.90;6.97;;;19.20;99.90;;;;;;5095325;28;20659;-67
2022/08/29 10:38:15;;;;;;;14.18;7.35;;;19.10;99.90;;;;;;5095585;28;20670;-67
2022/08/29 10:40:46;;;;;;;15.00;8.57;;;19.60;99.90;;;;;;5094835;28;20205;-67
2022/08/29 10:43:33;;;;;;;14.63;7.78;;;20.20;99.90;;;;;;5095558;28;20774;-68
2022/08/29 10:46:23;;;;;;;12.82;6.63;;;20.20;99.90;;;;;;5094905;28;20213;-67
2022/08/29 10:48:59;;;;;;;11.13;6.38;;;20.40;99.90;;;;;;5095236;28;20557;-67
2022/08/29 10:51:34;;;;;;;13.32;6.70;;;21.00;99.90;;;;;;5094877;28;20205;-67
2022/08/29 10:54:10;;;;;;;11.35;6.13;;;20.80;99.90;;;;;;5095227;28;20288;-67
2022/08/29 10:56:41;;;;;;;10.63;6.50;;;21.20;99.90;;;;;;5095085;28;20201;-67
2022/08/29 10:59:17;;;;;;;14.80;7.07;;;21.30;99.90;;;;;;5095316;28;20529;-67
2022/08/29 11:01:49;;;;;;;10.57;5.95;;;21.60;99.90;;;;;;5093868;28;20197;-68
2022/08/29 11:04:20;;;;;;;12.25;5.93;;;21.80;99.90;;;;;;5094392;28;20232;-68
2022/08/29 11:06:57;;;;;;;11.25;6.82;;;21.60;99.90;;;;;;5115178;27;20193;-67
2022/08/29 11:09:30;;;;;;;10.57;6.53;;;21.40;99.90;;;;;;5113465;27;20203;-68
2022/08/29 11:12:07;;;;;;;10.05;6.20;;;21.90;99.90;;;;;;5109328;27;20197;-67
2022/08/29 11:14:39;;;;;;;12.85;5.90;;;22.00;99.90;;;;;;5115019;27;20771;-68
2022/08/29 11:17:08;;;;;;;8.90;5.78;;;22.60;99.90;;;;;;5109322;28;20573;-68
2022/08/29 11:19:46;;;;;;;11.55;6.20;;;22.80;99.90;;;;;;5106956;27;20213;-68
2022/08/29 11:22:17;;;;;;;12.85;6.47;;;22.80;99.90;;;;;;5117911;27;20766;-68
2022/08/29 11:24:57;;;;;;;9.40;5.72;;;23.10;99.90;;;;;;5100309;28;20627;-68
2022/08/29 11:27:35;;;;;;;9.63;5.85;;;22.90;99.90;;;;;;5113995;28;20196;-68
2022/08/29 11:30:05;;;;;;;8.20;5.50;;;23.10;99.90;;;;;;5108175;28;20448;-68
2022/08/29 11:32:40;;;;;;;6.57;5.35;;;23.00;99.90;;;;;;5113569;28;20196;-68
2022/08/29 11:35:19;;;;;;;10.18;5.93;;;23.20;99.90;;;;;;5114749;28;20548;-71
2022/08/29 11:38:19;;;;;;;10.70;5.63;;;23.90;99.90;;;;;;5113145;28;20586;-70
2022/08/29 11:41:07;;;;;;;11.65;5.50;;;23.60;99.90;;;;;;5113192;28;20212;-68
2022/08/29 11:43:39;;;;;;;8.68;5.88;;;23.40;99.90;;;;;;5110015;28;20679;-69
2022/08/29 11:46:10;;;;;;;9.20;5.50;;;23.60;99.90;;;;;;5094970;28;20710;-69
2022/08/29 11:48:39;;;;;;;9.88;5.20;;;23.20;99.90;;;;;;5105252;28;20254;-69
2022/08/29 11:51:34;;;;;;;7.57;5.05;;;23.20;99.90;;;;;;5107578;28;20243;-69
2022/08/29 11:54:34;;;;;;;11.73;5.40;;;23.40;99.90;;;;;;5100756;27;20197;-69
2022/08/29 11:57:34;;;;;;;8.23;5.13;;;23.80;99.90;;;;;;5102027;28;20205;-70
2022/08/29 12:00:23;;;;;;;7.78;4.88;;;23.60;99.90;;;;;;5103816;28;20903;-70
2022/08/29 12:02:50;;;;;;;9.18;5.20;;;24.30;99.90;;;;;;5100825;28;20260;-70
2022/08/29 12:05:52;;;;;;;8.48;5.43;;;23.80;99.90;;;;;;5108415;28;20636;-69
2022/08/29 12:08:35;;;;;;;13.20;5.70;;;23.80;99.90;;;;;;5100407;28;20229;-70
2022/08/29 12:11:02;;;;;;;6.55;4.50;;;23.30;99.90;;;;;;5108175;28;20651;-69
2022/08/29 12:14:02;;;;;;;7.82;4.07;;;23.50;99.90;;;;;;5104052;28;20205;-70
2022/08/29 12:16:47;;;;;;;7.15;4.57;;;23.40;99.90;;;;;;5103101;28;20201;-70
2022/08/29 12:19:45;;;;;;;6.07;4.38;;;23.50;99.90;;;;;;5100664;28;20214;-70
2022/08/29 12:23:00;;;;;;;7.88;4.35;;;24.30;99.90;;;;;;5115639;27;20201;-70
2022/08/29 12:25:43;;;;;;;8.35;4.75;;;23.90;99.90;;;;;;5065736;28;20646;-69
2022/08/29 12:28:43;;;;;;;5.28;4.05;;;23.60;99.90;;;;;;5069866;28;20214;-69
2022/08/29 12:31:31;;;;;;;6.30;4.28;;;23.60;99.90;;;;;;5087886;28;20596;-69
2022/08/29 12:34:16;;;;;;;6.03;3.75;;;24.10;99.90;;;;;;5093301;28;20293;-70
2022/08/29 12:37:05;;;;;;;8.40;4.65;;;24.30;99.90;;;;;;5110537;28;20204;-70
2022/08/29 12:40:00;;;;;;;7.20;4.13;;;23.70;99.90;;;;;;5113449;28;20209;-69
2022/08/29 12:42:35;;;;;;;6.90;4.55;;;23.40;99.90;;;;;;5101445;27;20197;-69
2022/08/29 12:45:04;;;;;;;9.25;4.43;;;23.50;99.90;;;;;;5094244;28;20188;-69
2022/08/29 12:47:34;;;;;;;10.05;4.80;;;23.90;99.90;;;;;;5111279;28;20250;-69
2022/08/29 12:50:07;;;;;;;11.05;5.07;;;24.40;99.90;;;;;;5109550;28;20204;-69
2022/08/29 12:52:36;;;;;;;7.45;4.45;;;23.60;99.90;;;;;;5091258;28;20198;-69
2022/08/29 12:55:21;;;;;;;9.73;4.82;;;24.20;99.90;;;;;;5098915;28;20209;-69
2022/08/29 12:57:48;;;;;;;15.20;4.57;;;24.30;99.90;;;;;;5113148;28;20244;-69
2022/08/29 13:00:20;;;;;;;8.20;4.25;;;24.80;99.90;;;;;;5119029;27;20250;-70
2022/08/29 13:02:57;;;;;;;7.45;4.65;;;24.70;94.00;;;;;;5112637;28;20197;-69
2022/08/29 13:05:27;;;;;;;9.52;4.40;;;24.10;99.90;;;;;;5113002;28;20197;-69